Time;durP1;ratioP1;P1;durP2;ratioP2;P2;SDS_P1;SDS_P2;PMS_P1;PMS_P2;Temp;Humidity;BMP_temperature;BMP_pressure;BME280_temperature;BME280_humidity;BME280_pressure;Samples;Min_cycle;Max_cycle;Signal;HPM_P1;HPM_P2
2024/01/29 00:00:49;;;;;;;7.80;4.40;;;;;;;-1.29;99.69;98546.20;108898;1265;22521;-76
2024/01/29 00:03:40;;;;;;;9.60;4.90;;;;;;;-1.31;99.72;98545.05;108770;1272;117658;-76
2024/01/29 00:06:13;;;;;;;8.90;5.30;;;;;;;-1.30;99.92;98541.97;108816;1266;22529;-76
2024/01/29 00:08:45;;;;;;;8.50;5.10;;;;;;;-1.29;99.71;98535.42;108871;1273;22500;-75
2024/01/29 00:11:16;;;;;;;9.50;6.20;;;;;;;-1.33;99.76;98539.13;108874;1273;22544;-76
2024/01/29 00:13:52;;;;;;;11.60;6.20;;;;;;;-1.34;99.92;98533.92;108895;1272;22517;-76
2024/01/29 00:16:23;;;;;;;9.20;5.90;;;;;;;-1.35;99.81;98527.45;108867;1272;22543;-76
2024/01/29 00:18:57;;;;;;;10.00;6.10;;;;;;;-1.35;99.79;98524.98;108893;1266;22531;-76
2024/01/29 00:21:33;;;;;;;15.50;5.60;;;;;;;-1.35;99.84;98529.73;108883;1272;22529;-76
2024/01/29 00:24:05;;;;;;;10.20;6.10;;;;;;;-1.35;99.91;98523.23;108868;1269;22588;-76
2024/01/29 00:26:40;;;;;;;10.10;6.10;;;;;;;-1.32;99.81;98523.98;108888;1269;22540;-76
2024/01/29 00:29:13;;;;;;;7.70;4.20;;;;;;;-1.31;99.93;98522.33;108874;1271;24269;-76
2024/01/29 00:31:44;;;;;;;12.40;6.90;;;;;;;-1.31;99.79;98521.48;108841;1272;22663;-76
2024/01/29 00:34:15;;;;;;;10.50;6.60;;;;;;;-1.28;99.71;98519.59;108881;1273;24238;-76
2024/01/29 00:36:49;;;;;;;11.20;7.20;;;;;;;-1.30;99.62;98518.35;108854;1269;22564;-76
2024/01/29 00:39:20;;;;;;;8.10;4.70;;;;;;;-1.30;99.54;98513.94;108882;1266;23696;-76
2024/01/29 00:41:54;;;;;;;11.50;7.20;;;;;;;-1.32;99.85;98509.80;108806;1266;22540;-76
2024/01/29 00:44:27;;;;;;;10.70;7.00;;;;;;;-1.34;99.62;98510.67;108853;1266;22538;-75
2024/01/29 00:46:59;;;;;;;14.90;8.00;;;;;;;-1.33;99.60;98516.11;108817;1266;22574;-76
2024/01/29 00:49:34;;;;;;;11.60;7.00;;;;;;;-1.31;99.83;98522.48;108915;1272;25424;-76
2024/01/29 00:52:07;;;;;;;13.00;7.80;;;;;;;-1.31;99.82;98533.05;108951;1272;22588;-76
2024/01/29 00:54:41;;;;;;;12.80;7.70;;;;;;;-1.30;99.68;98538.19;108992;1272;22519;-76
2024/01/29 00:57:15;;;;;;;13.80;7.80;;;;;;;-1.29;99.81;98542.91;108927;1273;23417;-76
2024/01/29 00:59:49;;;;;;;12.50;7.40;;;;;;;-1.27;99.79;98551.70;108950;1272;24180;-76
2024/01/29 01:02:26;;;;;;;12.50;7.80;;;;;;;-1.28;99.37;98558.08;108841;1273;22530;-76
2024/01/29 01:05:01;;;;;;;11.70;6.90;;;;;;;-1.31;99.59;98566.59;108915;1272;22579;-75
2024/01/29 01:07:32;;;;;;;10.90;6.70;;;;;;;-1.35;99.33;98572.36;108864;1266;22935;-75
2024/01/29 01:10:12;;;;;;;8.30;4.70;;;;;;;-1.38;99.31;98578.69;108870;1273;25252;-76
2024/01/29 01:12:43;;;;;;;11.00;6.80;;;;;;;-1.36;99.82;98581.08;108873;1266;22524;-75
2024/01/29 01:15:15;;;;;;;11.30;7.00;;;;;;;-1.36;99.64;98584.23;108879;1273;22657;-76
2024/01/29 01:17:50;;;;;;;10.10;6.60;;;;;;;-1.43;99.41;98586.52;108853;1266;22541;-75
2024/01/29 01:20:23;;;;;;;11.30;7.50;;;;;;;-1.53;98.92;98587.13;108902;1272;25413;-76
2024/01/29 01:22:57;;;;;;;12.50;7.40;;;;;;;-1.56;99.24;98586.73;108859;1250;22532;-75
2024/01/29 01:25:33;;;;;;;11.00;6.40;;;;;;;-1.60;99.10;98584.00;108862;1267;22637;-76
2024/01/29 01:28:08;;;;;;;11.70;7.10;;;;;;;-1.61;99.01;98581.17;108933;1266;22709;-76
2024/01/29 01:30:41;;;;;;;10.80;5.80;;;;;;;-1.59;99.31;98582.92;108896;1271;22813;-76
2024/01/29 01:33:15;;;;;;;10.10;6.00;;;;;;;-1.57;99.35;98581.34;108839;1272;25348;-76
2024/01/29 01:35:48;;;;;;;14.00;7.40;;;;;;;-1.57;99.47;98584.59;108882;1272;23150;-76
2024/01/29 01:38:20;;;;;;;7.90;5.60;;;;;;;-1.59;99.06;98580.79;108854;1272;24250;-75
2024/01/29 01:40:51;;;;;;;11.10;6.00;;;;;;;-1.60;99.09;98575.02;108853;1273;22555;-75
2024/01/29 01:43:24;;;;;;;9.30;6.10;;;;;;;-1.63;98.97;98559.90;108865;1265;22528;-75
2024/01/29 01:46:15;;;;;;;9.00;5.60;;;;;;;-1.68;99.03;98556.23;108847;1273;22546;-76
2024/01/29 01:48:50;;;;;;;12.50;7.30;;;;;;;-1.70;99.10;98553.02;108835;1270;22542;-76
2024/01/29 01:51:28;;;;;;;10.90;6.90;;;;;;;-1.71;99.16;98547.48;108888;1267;22592;-76
2024/01/29 01:54:02;;;;;;;11.00;4.80;;;;;;;-1.69;99.39;98546.30;108865;1266;22837;-76
2024/01/29 01:56:34;;;;;;;8.60;4.70;;;;;;;-1.56;99.88;98541.32;108940;1266;24157;-75
2024/01/29 01:59:11;;;;;;;11.40;5.90;;;;;;;-1.42;99.81;98539.63;108954;1266;22747;-75
2024/01/29 02:01:49;;;;;;;10.00;6.30;;;;;;;-1.39;99.77;98539.95;108881;1250;23159;-76
2024/01/29 02:04:20;;;;;;;10.00;5.10;;;;;;;-1.33;99.80;98535.19;108885;1273;23772;-76
2024/01/29 02:06:53;;;;;;;7.20;5.00;;;;;;;-1.28;99.43;98537.05;108929;1272;22565;-75
2024/01/29 02:09:28;;;;;;;9.30;5.50;;;;;;;-1.24;99.57;98525.04;108882;1273;22644;-76
2024/01/29 02:11:59;;;;;;;6.90;4.70;;;;;;;-1.21;99.45;98515.55;108867;1272;22659;-76
2024/01/29 02:14:31;;;;;;;8.20;5.60;;;;;;;-1.21;99.29;98514.54;108908;1272;22534;-76
2024/01/29 02:17:04;;;;;;;12.10;7.60;;;;;;;-1.21;99.17;98506.31;108918;1272;22517;-75
2024/01/29 02:19:35;;;;;;;11.50;6.50;;;;;;;-1.10;99.57;98504.45;108883;1272;23845;-75
2024/01/29 02:22:08;;;;;;;10.30;5.60;;;;;;;-0.94;99.38;98496.47;108950;1272;25414;-76
2024/01/29 02:24:39;;;;;;;10.60;5.90;;;;;;;-0.88;99.09;98485.45;108867;1272;22523;-76
2024/01/29 02:27:18;;;;;;;10.00;5.70;;;;;;;-0.87;98.77;98482.55;108886;1272;22647;-76
2024/01/29 02:29:51;;;;;;;13.30;7.00;;;;;;;-0.91;98.65;98478.97;108855;1266;25852;-75
2024/01/29 02:32:24;;;;;;;14.40;7.00;;;;;;;-0.89;98.49;98483.66;108867;1266;22657;-76
2024/01/29 02:34:56;;;;;;;8.10;5.30;;;;;;;-0.86;98.30;98488.58;108928;1266;22513;-76
2024/01/29 02:37:27;;;;;;;9.90;6.20;;;;;;;-0.94;97.81;98502.20;108868;1267;22559;-76
2024/01/29 02:39:58;;;;;;;10.40;5.90;;;;;;;-1.01;97.84;98505.88;108893;1272;22635;-76
2024/01/29 02:42:35;;;;;;;11.90;7.50;;;;;;;-0.99;97.98;98510.73;108901;1272;22952;-75
2024/01/29 02:45:08;;;;;;;10.50;5.20;;;;;;;-0.97;98.07;98511.34;108847;1267;23812;-76
2024/01/29 02:47:39;;;;;;;10.50;5.90;;;;;;;-0.95;97.76;98515.45;108928;1272;22524;-76
2024/01/29 02:50:25;;;;;;;9.80;6.00;;;;;;;-0.96;97.90;98519.91;108936;1266;26012;-75
2024/01/29 02:52:59;;;;;;;11.50;6.30;;;;;;;-0.96;97.81;98521.17;108856;1266;23824;-76
2024/01/29 02:55:30;;;;;;;9.60;5.60;;;;;;;-0.97;97.66;98522.25;108895;1266;24214;-75
2024/01/29 02:58:01;;;;;;;11.00;6.40;;;;;;;-0.98;98.06;98523.61;108869;1269;22537;-75
2024/01/29 03:00:35;;;;;;;10.80;5.40;;;;;;;-1.01;97.68;98519.64;108921;1271;23978;-75
2024/01/29 03:03:06;;;;;;;9.00;5.70;;;;;;;-1.04;97.61;98521.69;108923;1250;22900;-75
2024/01/29 03:05:40;;;;;;;10.00;5.40;;;;;;;-1.06;97.50;98521.29;108915;1266;22834;-75
2024/01/29 03:08:11;;;;;;;8.90;5.20;;;;;;;-1.06;97.70;98526.02;108914;1272;22620;-76
2024/01/29 03:10:42;;;;;;;9.40;5.80;;;;;;;-1.07;97.70;98530.70;108859;1272;22520;-74
2024/01/29 03:13:19;;;;;;;9.50;5.80;;;;;;;-1.08;97.48;98540.97;108858;1266;22521;-74
2024/01/29 03:15:51;;;;;;;11.10;6.00;;;;;;;-1.12;97.34;98554.10;108893;1272;22527;-74
2024/01/29 03:18:24;;;;;;;9.60;6.20;;;;;;;-1.18;97.19;98554.16;108939;1270;23699;-74
2024/01/29 03:20:55;;;;;;;9.40;5.70;;;;;;;-1.23;97.46;98548.07;108872;1272;22517;-74
2024/01/29 03:23:26;;;;;;;9.20;5.20;;;;;;;-1.27;97.64;98543.91;108894;1266;22520;-74
2024/01/29 03:25:59;;;;;;;10.20;4.90;;;;;;;-1.28;97.19;98534.69;108878;1265;22555;-74
2024/01/29 03:28:32;;;;;;;8.10;4.70;;;;;;;-1.28;97.45;98525.52;108924;1272;22627;-74
2024/01/29 03:31:05;;;;;;;8.20;4.20;;;;;;;-1.26;97.48;98520.90;108897;1272;23318;-74
2024/01/29 03:33:36;;;;;;;5.80;3.00;;;;;;;-1.20;97.45;98512.00;108898;1272;22523;-74
2024/01/29 03:36:09;;;;;;;9.70;5.20;;;;;;;-1.17;97.63;98510.28;108908;1266;22518;-74
2024/01/29 03:38:41;;;;;;;6.80;4.40;;;;;;;-1.19;97.40;98509.27;108905;1272;23923;-74
2024/01/29 03:41:14;;;;;;;8.30;5.20;;;;;;;-1.16;97.71;98512.81;108855;1266;22518;-74
2024/01/29 03:43:45;;;;;;;6.20;3.80;;;;;;;-1.12;97.43;98511.19;108880;1272;22561;-74
2024/01/29 03:46:16;;;;;;;9.20;5.60;;;;;;;-1.07;97.81;98516.41;108860;1272;22524;-74
2024/01/29 03:48:50;;;;;;;8.40;4.40;;;;;;;-1.07;97.41;98516.48;108838;1271;25438;-74
2024/01/29 03:51:23;;;;;;;10.30;6.20;;;;;;;-1.10;96.84;98520.34;108862;1272;25433;-74
2024/01/29 03:53:54;;;;;;;9.50;5.90;;;;;;;-1.15;96.71;98514.48;108857;1266;23838;-74
2024/01/29 03:56:25;;;;;;;9.60;5.50;;;;;;;-1.18;96.85;98520.52;108870;1272;22592;-74
2024/01/29 03:59:10;;;;;;;9.80;5.70;;;;;;;-1.21;96.65;98518.86;108922;1250;22529;-74
2024/01/29 04:01:44;;;;;;;12.60;6.50;;;;;;;-1.28;96.59;98511.26;108957;1272;22556;-75
2024/01/29 04:04:18;;;;;;;10.40;5.50;;;;;;;-1.35;96.40;98507.97;109000;1266;22729;-74
2024/01/29 04:06:52;;;;;;;10.40;5.90;;;;;;;-1.42;96.59;98506.30;108962;1273;22564;-74
2024/01/29 04:09:25;;;;;;;10.60;5.80;;;;;;;-1.47;96.56;98505.08;108988;1272;22527;-74
2024/01/29 04:12:01;;;;;;;12.20;6.90;;;;;;;-1.52;96.43;98511.27;108938;1273;22528;-74
2024/01/29 04:14:32;;;;;;;10.80;7.10;;;;;;;-1.58;96.75;98513.43;108987;1273;22537;-74
2024/01/29 04:17:07;;;;;;;9.70;5.80;;;;;;;-1.62;96.28;98509.98;108956;1270;22828;-74
2024/01/29 04:19:41;;;;;;;12.90;7.40;;;;;;;-1.67;96.47;98510.54;108990;1273;22588;-74
2024/01/29 04:22:16;;;;;;;10.60;6.80;;;;;;;-1.70;96.72;98508.98;108949;1273;23661;-74
2024/01/29 04:24:47;;;;;;;12.10;6.70;;;;;;;-1.73;96.66;98501.84;108951;1266;23880;-74
2024/01/29 04:27:20;;;;;;;7.80;4.90;;;;;;;-1.69;97.18;98496.25;108989;1272;24369;-74
2024/01/29 04:29:59;;;;;;;9.70;4.80;;;;;;;-1.54;97.10;98496.79;108974;1272;22900;-74
2024/01/29 04:32:31;;;;;;;8.80;5.30;;;;;;;-1.39;97.55;98495.46;108921;1272;23984;-74
2024/01/29 04:35:05;;;;;;;8.30;5.50;;;;;;;-1.31;97.25;98493.83;108981;1272;23598;-74
2024/01/29 04:37:44;;;;;;;11.40;6.10;;;;;;;-1.30;96.94;98488.41;109043;1266;24250;-74
2024/01/29 04:40:23;;;;;;;10.10;5.60;;;;;;;-1.33;96.94;98482.28;108982;1269;22649;-74
2024/01/29 04:42:56;;;;;;;8.10;5.00;;;;;;;-1.33;96.93;98482.06;108915;1273;24196;-74
2024/01/29 04:45:27;;;;;;;8.20;4.20;;;;;;;-1.26;97.06;98480.53;108917;1266;22639;-75
2024/01/29 04:47:58;;;;;;;7.90;4.40;;;;;;;-1.12;97.10;98475.27;108847;1266;24270;-74
2024/01/29 04:50:29;;;;;;;8.70;4.90;;;;;;;-0.96;97.16;98483.30;108882;1271;22524;-74
2024/01/29 04:53:04;;;;;;;7.00;4.10;;;;;;;-0.92;96.91;98479.75;108827;1273;22530;-74
2024/01/29 04:55:37;;;;;;;9.40;5.50;;;;;;;-0.89;96.54;98478.90;108911;1267;22539;-74
2024/01/29 04:58:09;;;;;;;9.50;4.60;;;;;;;-0.90;96.11;98478.48;108884;1273;22516;-74
2024/01/29 05:00:42;;;;;;;7.60;4.30;;;;;;;-0.92;95.75;98483.72;108837;1273;22535;-74
2024/01/29 05:03:15;;;;;;;6.20;3.40;;;;;;;-0.93;95.51;98479.59;108875;1272;22514;-74
2024/01/29 05:05:57;;;;;;;6.60;4.00;;;;;;;-0.95;95.28;98478.22;108836;1266;22935;-74
2024/01/29 05:08:30;;;;;;;6.50;3.70;;;;;;;-0.93;95.63;98482.65;108868;1273;22795;-74
2024/01/29 05:11:02;;;;;;;6.80;3.40;;;;;;;-0.96;95.80;98477.05;108885;1273;22545;-74
2024/01/29 05:13:33;;;;;;;7.10;3.70;;;;;;;-0.95;96.02;98480.83;108859;1273;25417;-75
2024/01/29 05:16:04;;;;;;;7.10;4.10;;;;;;;-0.95;95.74;98484.11;108866;1266;22535;-75
2024/01/29 05:18:36;;;;;;;7.00;4.30;;;;;;;-0.96;95.52;98489.45;108885;1273;22605;-75
2024/01/29 05:21:09;;;;;;;8.30;5.20;;;;;;;-0.97;95.49;98487.10;108861;1273;25079;-75
2024/01/29 05:23:43;;;;;;;7.90;4.30;;;;;;;-0.96;95.38;98481.02;108859;1273;25085;-75
2024/01/29 05:26:14;;;;;;;8.30;4.10;;;;;;;-0.92;95.46;98482.19;108859;1273;24256;-74
2024/01/29 05:28:45;;;;;;;8.10;4.60;;;;;;;-0.93;95.23;98481.58;108841;1273;23679;-75
2024/01/29 05:31:16;;;;;;;5.50;3.80;;;;;;;-0.91;95.26;98479.84;108837;1266;23011;-74
2024/01/29 05:33:50;;;;;;;5.20;3.20;;;;;;;-0.93;94.87;98476.11;108906;1272;22759;-75
2024/01/29 05:36:23;;;;;;;6.50;4.00;;;;;;;-0.98;95.06;98469.63;108893;1269;22517;-74
2024/01/29 05:38:54;;;;;;;4.20;2.40;;;;;;;-0.97;95.13;98478.02;108887;1270;25424;-75
2024/01/29 05:41:27;;;;;;;5.20;3.40;;;;;;;-0.96;94.99;98473.30;108903;1273;22521;-74
2024/01/29 05:43:58;;;;;;;7.60;4.20;;;;;;;-0.95;95.00;98473.73;108864;1273;22524;-75
2024/01/29 05:46:31;;;;;;;7.50;4.20;;;;;;;-0.96;94.65;98475.52;108883;1266;23897;-75
2024/01/29 05:49:02;;;;;;;6.20;3.60;;;;;;;-0.96;94.70;98480.60;108868;1273;22524;-74
2024/01/29 05:51:40;;;;;;;7.80;2.60;;;;;;;-1.01;94.53;98482.55;108847;1272;22573;-75
2024/01/29 05:54:13;;;;;;;7.40;4.60;;;;;;;-1.04;94.47;98496.14;108865;1266;24203;-74
2024/01/29 05:56:46;;;;;;;8.50;5.20;;;;;;;-1.08;94.37;98496.70;108833;1268;24960;-74
2024/01/29 05:59:17;;;;;;;6.50;3.50;;;;;;;-1.14;94.23;98494.04;108868;1272;22520;-74
2024/01/29 06:01:53;;;;;;;11.60;5.00;;;;;;;-1.19;94.62;98485.14;108863;1272;25421;-74
2024/01/29 06:04:24;;;;;;;5.10;3.60;;;;;;;-1.23;94.32;98489.42;108900;1265;22668;-74
2024/01/29 06:06:55;;;;;;;8.10;4.20;;;;;;;-1.26;94.32;98495.59;108927;1273;22514;-74
2024/01/29 06:09:26;;;;;;;7.60;4.00;;;;;;;-1.28;94.20;98496.70;108880;1273;23868;-74
2024/01/29 06:12:02;;;;;;;8.60;5.60;;;;;;;-1.30;94.09;98498.65;108822;1272;22872;-75
2024/01/29 06:14:37;;;;;;;7.40;4.30;;;;;;;-1.34;94.24;98500.06;108818;1273;22520;-74
2024/01/29 06:17:08;;;;;;;6.80;4.30;;;;;;;-1.33;94.26;98506.15;108876;1269;22670;-75
2024/01/29 06:19:41;;;;;;;13.80;5.70;;;;;;;-1.33;94.30;98504.11;108930;1273;22536;-74
2024/01/29 06:22:13;;;;;;;7.60;4.50;;;;;;;-1.29;94.23;98512.58;108876;1273;25425;-74
2024/01/29 06:24:47;;;;;;;8.80;5.30;;;;;;;-1.26;94.51;98515.77;108870;1272;22814;-74
2024/01/29 06:27:21;;;;;;;7.40;4.50;;;;;;;-1.26;94.52;98520.96;108921;1272;23751;-74
2024/01/29 06:29:53;;;;;;;8.00;4.30;;;;;;;-1.27;94.17;98517.22;108967;1272;25243;-74
2024/01/29 06:32:29;;;;;;;8.30;4.60;;;;;;;-1.16;94.87;98513.39;108952;1273;23884;-75
2024/01/29 06:35:00;;;;;;;8.70;4.70;;;;;;;-0.95;94.88;98513.92;108930;1269;22514;-74
2024/01/29 06:37:31;;;;;;;5.20;3.50;;;;;;;-0.85;95.16;98517.27;108954;1272;24200;-74
2024/01/29 06:40:05;;;;;;;7.20;4.30;;;;;;;-0.86;94.44;98513.51;108939;1266;22526;-74
2024/01/29 06:42:39;;;;;;;7.80;4.00;;;;;;;-0.91;94.43;98513.66;108986;1272;22545;-74
2024/01/29 06:45:11;;;;;;;7.40;4.80;;;;;;;-0.88;94.15;98518.55;108921;1266;22710;-75
2024/01/29 06:47:44;;;;;;;8.20;4.40;;;;;;;-0.59;94.44;98519.02;108939;1269;22660;-75
2024/01/29 06:50:17;;;;;;;7.10;4.20;;;;;;;-0.23;94.41;98521.42;108879;1249;22601;-75
2024/01/29 06:52:50;;;;;;;8.20;5.00;;;;;;;0.07;93.80;98519.50;108855;1266;22663;-75
2024/01/29 06:55:25;;;;;;;10.00;5.00;;;;;;;0.21;93.15;98512.83;108934;1272;22525;-75
2024/01/29 06:57:57;;;;;;;7.40;3.10;;;;;;;0.34;92.47;98517.14;108893;1273;22542;-75
2024/01/29 07:00:30;;;;;;;4.80;3.30;;;;;;;0.45;91.13;98519.55;108965;1273;22602;-75
2024/01/29 07:03:01;;;;;;;7.30;4.40;;;;;;;0.46;90.01;98522.60;108843;1272;22482;-75
2024/01/29 07:05:35;;;;;;;5.90;3.30;;;;;;;0.55;89.59;98523.16;108842;1272;22517;-75
2024/01/29 07:08:09;;;;;;;6.10;4.40;;;;;;;0.80;90.21;98529.29;108886;1272;22825;-75
2024/01/29 07:10:42;;;;;;;7.70;5.30;;;;;;;1.05;89.54;98529.60;108882;1266;22533;-75
2024/01/29 07:13:20;;;;;;;7.60;5.10;;;;;;;1.22;88.88;98525.77;108853;1272;22551;-75
2024/01/29 07:15:53;;;;;;;8.60;4.10;;;;;;;1.37;87.85;98522.41;108841;1266;22489;-75
2024/01/29 07:18:30;;;;;;;7.30;4.70;;;;;;;1.39;86.35;98526.98;108914;1250;22551;-75
2024/01/29 07:21:03;;;;;;;8.50;4.70;;;;;;;1.43;85.54;98532.48;108855;1266;22599;-75
2024/01/29 07:23:35;;;;;;;7.40;5.00;;;;;;;1.59;85.37;98530.00;108812;1272;22518;-75
2024/01/29 07:26:06;;;;;;;7.70;4.20;;;;;;;1.64;84.64;98527.38;108876;1266;22667;-75
2024/01/29 07:28:37;;;;;;;5.70;3.50;;;;;;;1.70;84.40;98525.58;108894;1272;22534;-75
2024/01/29 07:31:11;;;;;;;7.40;5.00;;;;;;;1.90;84.29;98523.54;108865;1271;22538;-75
2024/01/29 07:33:44;;;;;;;6.50;4.00;;;;;;;2.19;84.40;98527.06;108923;1272;22862;-75
2024/01/29 07:36:15;;;;;;;8.40;5.50;;;;;;;2.38;83.74;98530.63;108884;1266;22525;-75
2024/01/29 07:38:52;;;;;;;7.70;5.40;;;;;;;2.43;83.26;98531.13;108872;1272;23854;-75
2024/01/29 07:41:23;;;;;;;7.70;5.50;;;;;;;2.74;83.54;98523.64;108909;1266;22639;-75
2024/01/29 07:43:56;;;;;;;8.60;4.90;;;;;;;2.96;83.30;98521.52;108916;1273;23171;-75
2024/01/29 07:46:27;;;;;;;5.30;3.30;;;;;;;3.05;82.15;98512.43;108859;1269;23864;-75
2024/01/29 07:49:03;;;;;;;6.70;4.20;;;;;;;2.89;80.20;98517.14;108900;1266;22521;-75
2024/01/29 07:51:34;;;;;;;7.20;4.50;;;;;;;2.86;80.31;98522.40;108837;1269;25269;-75
2024/01/29 07:54:08;;;;;;;5.30;3.70;;;;;;;2.85;79.75;98518.14;108862;1266;24301;-75
2024/01/29 07:56:41;;;;;;;8.60;4.70;;;;;;;2.72;79.38;98521.96;108912;1266;22644;-75
2024/01/29 07:59:17;;;;;;;8.10;4.60;;;;;;;2.70;79.49;98519.05;108900;1273;22540;-75
2024/01/29 08:01:49;;;;;;;6.80;4.40;;;;;;;2.75;79.73;98516.52;108802;1272;22517;-75
2024/01/29 08:04:20;;;;;;;6.90;4.30;;;;;;;2.77;79.32;98519.77;108850;1273;22632;-75
2024/01/29 08:06:53;;;;;;;7.70;4.50;;;;;;;2.91;79.33;98514.11;108877;1273;24183;-75
2024/01/29 08:09:26;;;;;;;6.10;4.20;;;;;;;2.78;79.03;98513.24;108843;1271;23551;-75
2024/01/29 08:11:59;;;;;;;6.50;4.20;;;;;;;2.73;78.27;98506.46;108844;1273;24205;-75
2024/01/29 08:14:33;;;;;;;7.50;5.20;;;;;;;2.71;78.47;98510.73;108859;1266;24885;-75
2024/01/29 08:17:04;;;;;;;7.90;4.70;;;;;;;3.02;78.60;98509.85;108856;1270;22587;-75
2024/01/29 08:19:34;;;;;;;7.90;4.30;;;;;;;3.11;78.75;98517.33;108834;1266;22523;-75
2024/01/29 08:22:08;;;;;;;8.00;5.10;;;;;;;3.34;78.65;98516.66;108874;1272;22523;-75
2024/01/29 08:24:43;;;;;;;8.70;5.70;;;;;;;3.43;78.39;98520.94;108865;1272;22520;-75
2024/01/29 08:27:19;;;;;;;8.30;5.30;;;;;;;3.46;78.52;98514.63;108871;1273;22513;-75
2024/01/29 08:29:50;;;;;;;8.80;5.30;;;;;;;3.65;78.79;98506.88;108831;1269;24193;-75
2024/01/29 08:32:24;;;;;;;9.40;5.00;;;;;;;3.77;78.46;98510.70;108867;1273;22535;-75
2024/01/29 08:34:58;;;;;;;9.50;4.80;;;;;;;3.51;77.22;98508.88;108916;1269;23146;-75
2024/01/29 08:37:29;;;;;;;8.80;5.80;;;;;;;3.36;76.72;98512.06;108894;1272;22826;-75
2024/01/29 08:40:08;;;;;;;9.60;5.70;;;;;;;3.34;77.56;98512.23;108858;1260;22634;-75
2024/01/29 08:42:41;;;;;;;9.80;5.30;;;;;;;3.32;77.86;98515.60;108879;1273;23113;-76
2024/01/29 08:45:17;;;;;;;9.80;6.10;;;;;;;3.38;78.02;98515.46;108883;1269;22580;-76
2024/01/29 08:47:49;;;;;;;9.60;6.00;;;;;;;3.35;77.55;98516.52;108930;1273;22524;-76
2024/01/29 08:50:23;;;;;;;9.40;6.00;;;;;;;3.37;78.57;98518.20;108880;1273;22541;-75
2024/01/29 08:52:57;;;;;;;7.60;4.70;;;;;;;3.47;78.29;98522.42;108866;1273;23319;-76
2024/01/29 08:55:31;;;;;;;11.10;5.90;;;;;;;3.32;78.01;98521.97;108869;1273;25624;-76
2024/01/29 08:58:03;;;;;;;7.00;4.40;;;;;;;3.25;77.99;98530.98;108896;1272;22911;-76
2024/01/29 09:00:37;;;;;;;9.30;5.70;;;;;;;3.12;78.63;98533.05;108871;1271;23159;-76
2024/01/29 09:03:12;;;;;;;10.10;6.00;;;;;;;3.20;78.63;98533.34;108872;1269;25271;-76
2024/01/29 09:05:44;;;;;;;7.80;6.10;;;;;;;3.10;78.82;98531.80;108910;1273;22557;-76
2024/01/29 09:08:15;;;;;;;8.60;6.20;;;;;;;3.12;79.26;98530.79;108884;1273;22511;-76
2024/01/29 09:10:52;;;;;;;8.00;4.30;;;;;;;3.20;79.71;98528.24;108935;1273;22834;-76
2024/01/29 09:13:27;;;;;;;10.90;6.40;;;;;;;3.22;79.97;98534.96;108890;1273;26585;-76
2024/01/29 09:16:00;;;;;;;9.50;5.10;;;;;;;3.30;79.76;98539.95;108896;1266;22523;-76
2024/01/29 09:18:31;;;;;;;7.60;5.60;;;;;;;3.05;78.76;98545.42;108925;1269;23980;-76
2024/01/29 09:21:05;;;;;;;9.50;5.30;;;;;;;2.96;79.42;98546.67;108894;1273;24359;-76
2024/01/29 09:23:40;;;;;;;9.50;5.70;;;;;;;2.85;78.53;98543.69;108881;1273;24841;-75
2024/01/29 09:26:11;;;;;;;9.10;5.50;;;;;;;2.71;78.87;98545.88;108895;1266;22529;-76
2024/01/29 09:28:45;;;;;;;8.20;4.80;;;;;;;2.66;79.14;98549.05;108912;1273;22557;-76
2024/01/29 09:31:19;;;;;;;8.10;4.60;;;;;;;2.58;78.79;98545.41;108886;1266;24242;-76
2024/01/29 09:33:57;;;;;;;8.60;4.80;;;;;;;2.53;79.37;98549.12;108874;1273;24225;-75
2024/01/29 09:36:31;;;;;;;6.80;4.40;;;;;;;2.56;79.76;98552.48;108895;1273;22527;-76
2024/01/29 09:39:09;;;;;;;6.50;4.10;;;;;;;2.67;79.96;98550.22;108895;1273;23189;-76
2024/01/29 09:41:42;;;;;;;10.40;4.60;;;;;;;2.60;79.46;98548.96;108859;1273;30841;-76
2024/01/29 09:44:16;;;;;;;9.20;5.60;;;;;;;2.70;80.45;98552.55;108958;1273;24234;-76
2024/01/29 09:46:49;;;;;;;9.20;5.10;;;;;;;2.94;80.97;98553.92;108840;1266;23688;-76
2024/01/29 09:49:25;;;;;;;9.40;5.40;;;;;;;3.04;80.00;98549.74;108918;1266;22664;-76
2024/01/29 09:51:57;;;;;;;9.70;5.50;;;;;;;3.04;80.29;98548.05;108894;1267;22511;-76
2024/01/29 09:54:30;;;;;;;7.90;5.70;;;;;;;3.15;80.47;98545.77;108865;1272;25110;-76
2024/01/29 09:57:01;;;;;;;8.90;5.60;;;;;;;3.15;80.05;98551.98;108901;1273;22541;-76
2024/01/29 09:59:33;;;;;;;8.90;5.40;;;;;;;3.14;79.89;98548.38;108928;1269;22485;-76
2024/01/29 10:02:08;;;;;;;10.30;6.40;;;;;;;3.09;79.52;98537.84;108794;1273;24385;-76
2024/01/29 10:04:44;;;;;;;7.80;4.50;;;;;;;3.04;79.67;98541.20;108907;1266;22548;-76
2024/01/29 10:07:18;;;;;;;8.70;5.00;;;;;;;3.05;79.44;98542.13;108834;1272;22541;-76
2024/01/29 10:09:52;;;;;;;9.90;6.30;;;;;;;3.01;79.35;98532.70;108883;1272;24331;-76
2024/01/29 10:12:26;;;;;;;7.40;4.20;;;;;;;3.06;79.46;98534.52;108857;1266;22588;-76
2024/01/29 10:14:57;;;;;;;6.10;3.90;;;;;;;3.05;79.16;98538.42;108891;1266;22517;-76
2024/01/29 10:17:29;;;;;;;6.90;3.90;;;;;;;3.17;79.77;98540.39;108876;1261;23274;-76
2024/01/29 10:20:07;;;;;;;10.30;5.40;;;;;;;3.27;79.31;98532.46;108894;1269;25224;-76
2024/01/29 10:22:42;;;;;;;10.60;5.80;;;;;;;3.27;79.39;98536.13;108875;1272;22837;-76
2024/01/29 10:25:18;;;;;;;6.90;4.10;;;;;;;3.41;79.64;98528.30;108915;1272;24241;-76
2024/01/29 10:27:52;;;;;;;10.20;4.60;;;;;;;3.46;79.05;98528.39;108944;1269;24184;-76
2024/01/29 10:30:24;;;;;;;8.60;4.70;;;;;;;3.37;78.62;98520.65;108942;1257;22906;-76
2024/01/29 10:32:55;;;;;;;7.40;4.60;;;;;;;3.43;79.68;98522.38;108925;1272;23207;-77
2024/01/29 10:35:27;;;;;;;10.90;6.60;;;;;;;3.54;79.76;98523.10;108894;1250;22525;-76
2024/01/29 10:38:04;;;;;;;7.80;4.50;;;;;;;3.76;80.67;98520.02;108876;1272;22507;-76
2024/01/29 10:40:37;;;;;;;10.00;5.40;;;;;;;3.88;80.18;98521.38;108918;1272;22555;-76
2024/01/29 10:43:17;;;;;;;10.60;5.80;;;;;;;3.94;80.07;98518.86;108877;1270;22524;-76
2024/01/29 10:45:57;;;;;;;9.80;6.00;;;;;;;3.89;79.37;98519.16;108855;1272;22472;-76
2024/01/29 10:48:29;;;;;;;12.40;6.20;;;;;;;3.89;79.33;98517.95;108964;1272;22781;-76
2024/01/29 10:51:07;;;;;;;9.30;5.00;;;;;;;3.87;78.80;98517.98;108942;1272;22526;-76
2024/01/29 10:53:38;;;;;;;8.40;5.40;;;;;;;3.90;79.16;98513.20;108952;1272;22524;-76
2024/01/29 10:56:13;;;;;;;9.50;5.60;;;;;;;3.98;78.91;98513.15;109036;1269;25955;-76
2024/01/29 10:58:48;;;;;;;12.40;6.30;;;;;;;4.11;79.30;98516.08;108943;1272;22581;-77
2024/01/29 11:01:22;;;;;;;9.90;6.00;;;;;;;4.21;79.14;98518.34;109007;1272;23325;-77
2024/01/29 11:03:57;;;;;;;8.20;5.10;;;;;;;4.31;79.22;98515.30;108972;1272;22657;-77
2024/01/29 11:06:36;;;;;;;8.90;4.90;;;;;;;4.37;78.99;98508.31;108972;1266;24912;-77
2024/01/29 11:09:12;;;;;;;10.20;6.00;;;;;;;4.32;77.89;98503.64;108995;1272;23867;-77
2024/01/29 11:11:48;;;;;;;9.50;5.60;;;;;;;4.21;78.04;98508.35;108978;1269;22535;-77
2024/01/29 11:14:22;;;;;;;7.10;3.90;;;;;;;4.23;78.12;98507.42;108993;1272;22549;-76
2024/01/29 11:16:57;;;;;;;8.00;4.00;;;;;;;4.17;77.29;98509.23;109018;1266;22518;-76
2024/01/29 11:19:33;;;;;;;8.80;4.00;;;;;;;4.14;77.50;98510.98;108978;1272;22546;-77
2024/01/29 11:22:10;;;;;;;9.40;5.20;;;;;;;4.10;77.24;98505.55;108969;1272;22549;-77
2024/01/29 11:24:46;;;;;;;8.40;4.40;;;;;;;4.20;78.08;98504.41;108959;1272;22538;-77
2024/01/29 11:27:17;;;;;;;8.00;5.50;;;;;;;4.29;77.59;98500.95;109028;1272;22997;-77
2024/01/29 11:29:54;;;;;;;8.10;5.10;;;;;;;4.44;78.30;98502.78;108989;1269;25297;-77
2024/01/29 11:32:25;;;;;;;6.80;4.10;;;;;;;4.62;78.43;98498.98;108966;1272;26693;-77
2024/01/29 11:34:58;;;;;;;9.80;5.70;;;;;;;4.68;77.42;98495.95;108997;1269;23864;-76
2024/01/29 11:37:29;;;;;;;6.60;3.30;;;;;;;4.69;77.51;98496.12;108941;1269;22692;-77
2024/01/29 11:40:01;;;;;;;8.40;5.10;;;;;;;4.72;76.58;98488.09;108980;1266;22663;-77
2024/01/29 11:42:32;;;;;;;9.30;5.30;;;;;;;4.78;77.19;98485.60;108997;1272;22779;-76
2024/01/29 11:45:04;;;;;;;6.70;4.20;;;;;;;4.98;77.98;98485.09;109064;1272;24188;-77
2024/01/29 11:47:35;;;;;;;7.90;4.60;;;;;;;5.21;77.47;98484.77;109008;1272;22517;-76
2024/01/29 11:50:07;;;;;;;7.20;4.00;;;;;;;5.29;77.57;98488.68;109016;1273;22588;-77
2024/01/29 11:52:39;;;;;;;7.70;5.10;;;;;;;5.45;77.36;98483.98;108920;1273;22705;-77
2024/01/29 11:55:13;;;;;;;7.80;4.90;;;;;;;5.50;77.43;98473.96;108963;1272;23462;-76